createdAt,value
2023-03-29T00:02:06.734Z,99928.91
2023-03-29T00:04:33.358Z,99917.88
2023-03-29T00:07:00.144Z,99900.13
2023-03-29T00:09:26.755Z,99909.34
2023-03-29T00:11:53.524Z,99904.84
2023-03-29T00:14:20.261Z,99906.50
2023-03-29T00:16:47.071Z,99903.84
2023-03-29T00:19:15.270Z,99897.03
2023-03-29T00:21:42.151Z,99899.16
2023-03-29T00:24:10.033Z,99907.59
2023-03-29T00:26:36.816Z,99898.84
2023-03-29T00:29:03.934Z,99896.88
2023-03-29T00:31:30.613Z,99886.28
2023-03-29T00:33:57.336Z,99881.88
2023-03-29T00:36:25.352Z,99879.69
2023-03-29T00:38:51.897Z,99884.63
2023-03-29T00:41:18.540Z,99882.84
2023-03-29T00:43:56.116Z,99890.25
2023-03-29T00:46:23.156Z,99881.69
2023-03-29T00:48:52.235Z,99881.69
2023-03-29T00:51:21.223Z,99878.13
2023-03-29T00:53:54.800Z,99874.28
2023-03-29T00:56:26.398Z,99860.75
2023-03-29T00:58:57.623Z,99857.19
2023-03-29T01:01:28.541Z,99866.16
2023-03-29T01:04:01.001Z,99862.19
2023-03-29T01:06:30.729Z,99869.28
2023-03-29T01:09:02.901Z,99862.94
2023-03-29T01:11:34.897Z,99860.06
2023-03-29T01:14:04.378Z,99856.53
2023-03-29T01:16:32.500Z,99853.03
2023-03-29T01:18:59.837Z,99851.94
2023-03-29T01:21:30.544Z,99851.59
2023-03-29T01:24:17.581Z,99842.78
2023-03-29T01:26:53.668Z,99836.94
2023-03-29T01:29:26.340Z,99828.66
2023-03-29T01:31:58.142Z,99828.75
2023-03-29T01:34:27.564Z,99833.63
2023-03-29T01:37:00.901Z,99829.88
2023-03-29T01:39:27.488Z,99824.59
2023-03-29T01:42:04.020Z,99821.88
2023-03-29T01:44:39.598Z,99813.31
2023-03-29T01:47:13.099Z,99815.59
2023-03-29T01:49:42.504Z,99809.47
2023-03-29T01:52:15.383Z,99796.06
2023-03-29T01:54:47.935Z,99793.88
2023-03-29T01:57:16.848Z,99802.19
2023-03-29T01:59:46.215Z,99803.47
2023-03-29T02:02:15.785Z,99807.53
2023-03-29T02:04:46.832Z,99797.63
2023-03-29T02:07:16.299Z,99800.09
2023-03-29T02:09:44.036Z,99799.31
2023-03-29T02:12:12.817Z,99795.00
2023-03-29T02:14:39.377Z,99786.25
2023-03-29T02:17:21.666Z,99785.63
2023-03-29T02:19:52.828Z,99782.88
2023-03-29T02:22:24.130Z,99778.03
2023-03-29T02:24:54.755Z,99776.56
2023-03-29T02:27:21.365Z,99775.81
2023-03-29T02:29:47.900Z,99784.84
2023-03-29T02:32:21.256Z,99781.69
2023-03-29T02:34:53.447Z,99784.34
2023-03-29T02:37:21.732Z,99771.88
2023-03-29T02:39:50.189Z,99771.03
2023-03-29T02:42:18.814Z,99772.88
2023-03-29T02:44:46.934Z,99772.28
2023-03-29T02:47:18.270Z,99769.75
2023-03-29T02:49:46.313Z,99783.66
2023-03-29T02:52:16.833Z,99778.28
2023-03-29T02:54:47.385Z,99777.53
2023-03-29T02:57:14.058Z,99773.53
2023-03-29T02:59:40.948Z,99777.00
2023-03-29T03:02:07.550Z,99776.94
2023-03-29T03:04:34.226Z,99779.13
2023-03-29T03:07:02.413Z,99771.78
2023-03-29T03:09:28.976Z,99774.84
2023-03-29T03:11:55.525Z,99766.81
2023-03-29T03:14:22.390Z,99772.72
2023-03-29T03:16:49.076Z,99764.69
2023-03-29T03:19:16.304Z,99763.91
2023-03-29T03:21:43.056Z,99765.72
2023-03-29T03:24:11.122Z,99761.09
2023-03-29T03:26:37.787Z,99765.50
2023-03-29T03:29:04.449Z,99755.44
2023-03-29T03:31:31.231Z,99738.09
2023-03-29T03:33:57.905Z,99743.56
2023-03-29T03:36:24.625Z,99743.03
2023-03-29T03:38:51.183Z,99743.59
2023-03-29T03:41:19.102Z,99737.69
2023-03-29T03:43:45.746Z,99726.16
2023-03-29T03:46:12.354Z,99731.16
2023-03-29T03:48:38.997Z,99731.06
2023-03-29T03:51:06.384Z,99728.50
2023-03-29T03:53:32.971Z,99726.88
2023-03-29T03:55:59.551Z,99734.66
2023-03-29T03:58:28.574Z,99736.13
2023-03-29T04:00:55.270Z,99737.66
2023-03-29T04:03:21.941Z,99731.94
2023-03-29T04:05:48.667Z,99730.63
2023-03-29T04:08:15.266Z,99737.19
2023-03-29T04:10:42.049Z,99727.31
2023-03-29T04:13:08.646Z,99733.31
2023-03-29T04:15:36.769Z,99729.59
2023-03-29T04:18:04.065Z,99727.84
2023-03-29T04:20:30.659Z,99713.22
2023-03-29T04:22:57.272Z,99726.75
2023-03-29T04:25:23.874Z,99731.03
2023-03-29T04:27:50.655Z,99733.66
2023-03-29T04:30:17.375Z,99730.88
2023-03-29T04:32:45.511Z,99733.66
2023-03-29T04:35:12.053Z,99739.84
2023-03-29T04:37:38.661Z,99730.88
2023-03-29T04:40:06.385Z,99730.94
2023-03-29T04:42:32.956Z,99734.47
2023-03-29T04:44:59.588Z,99725.91
2023-03-29T04:47:26.276Z,99724.00
2023-03-29T04:49:54.218Z,99723.28
2023-03-29T04:52:23.220Z,99726.94
2023-03-29T04:54:50.989Z,99723.63
2023-03-29T04:57:17.741Z,99719.41
2023-03-29T04:59:44.402Z,99707.50
2023-03-29T05:02:11.103Z,99710.31
2023-03-29T05:04:37.898Z,99706.59
2023-03-29T05:07:05.869Z,99700.72
2023-03-29T05:09:35.028Z,99706.50
2023-03-29T05:12:02.344Z,99705.09
2023-03-29T05:14:28.912Z,99705.00
2023-03-29T05:16:55.493Z,99700.09
2023-03-29T05:19:22.152Z,99692.78
2023-03-29T05:21:49.222Z,99691.47
2023-03-29T05:24:17.237Z,99693.13
2023-03-29T05:26:43.895Z,99678.81
2023-03-29T05:29:10.742Z,99694.78
2023-03-29T05:31:37.423Z,99687.72
2023-03-29T05:34:04.349Z,99680.53
2023-03-29T05:36:31.290Z,99681.22
2023-03-29T05:38:58.218Z,99681.91
2023-03-29T05:41:26.223Z,99676.50
2023-03-29T05:43:52.910Z,99683.41
2023-03-29T05:46:19.731Z,99679.28
2023-03-29T05:48:46.385Z,99672.06
2023-03-29T05:51:13.014Z,99672.38
2023-03-29T05:53:39.556Z,99666.94
2023-03-29T05:56:07.092Z,99673.41
2023-03-29T05:58:35.103Z,99672.31
2023-03-29T06:01:02.167Z,99680.69
2023-03-29T06:03:29.044Z,99689.19
2023-03-29T06:05:57.901Z,99686.84
2023-03-29T06:08:24.971Z,99677.81
2023-03-29T06:10:51.689Z,99685.72
2023-03-29T06:13:18.250Z,99685.81
2023-03-29T06:15:46.228Z,99676.41
2023-03-29T06:18:12.860Z,99677.78
2023-03-29T06:20:39.547Z,99674.19
2023-03-29T06:23:06.131Z,99670.63
2023-03-29T06:25:32.846Z,99682.16
2023-03-29T06:27:59.478Z,99681.22
2023-03-29T06:30:28.504Z,99685.75
2023-03-29T06:32:58.425Z,99679.94
2023-03-29T06:35:25.042Z,99691.94
2023-03-29T06:37:51.642Z,99692.53
2023-03-29T06:40:18.737Z,99690.31
2023-03-29T06:42:45.741Z,99697.31
2023-03-29T06:45:12.604Z,99695.34
2023-03-29T06:47:39.300Z,99686.72
2023-03-29T06:50:08.434Z,99700.63
2023-03-29T06:52:35.068Z,99696.13
2023-03-29T06:55:01.734Z,99705.63
2023-03-29T06:57:28.351Z,99704.22
2023-03-29T06:59:55.177Z,99694.13
2023-03-29T07:02:21.785Z,99693.06
2023-03-29T07:04:48.596Z,99696.81
2023-03-29T07:07:16.777Z,99710.47
2023-03-29T07:09:43.423Z,99706.25
2023-03-29T07:12:10.133Z,99707.03
2023-03-29T07:14:36.702Z,99704.28
2023-03-29T07:17:03.510Z,99700.97
2023-03-29T07:19:30.192Z,99708.19
2023-03-29T07:21:57.143Z,99707.63
2023-03-29T07:24:25.158Z,99705.75
2023-03-29T07:27:03.321Z,99711.28
2023-03-29T07:29:31.454Z,99707.94
2023-03-29T07:31:58.100Z,99698.88
2023-03-29T07:34:24.681Z,99706.91
2023-03-29T07:36:51.264Z,99706.09
2023-03-29T07:39:17.891Z,99705.84
2023-03-29T07:41:45.996Z,99705.84
2023-03-29T07:44:12.711Z,99706.69
2023-03-29T07:46:39.265Z,99712.25
2023-03-29T07:49:05.841Z,99711.06
2023-03-29T07:51:32.422Z,99711.19
2023-03-29T07:53:59.158Z,99713.28
2023-03-29T07:56:25.699Z,99709.97
2023-03-29T07:58:53.928Z,99710.28
2023-03-29T08:01:20.684Z,99716.63
2023-03-29T08:03:47.557Z,99717.16
2023-03-29T08:06:14.214Z,99722.81
2023-03-29T08:08:40.857Z,99724.72
2023-03-29T08:11:07.487Z,99722.50
2023-03-29T08:13:34.068Z,99724.25
2023-03-29T08:16:02.084Z,99727.75
2023-03-29T08:18:28.614Z,99723.81
2023-03-29T08:20:55.291Z,99718.47
2023-03-29T08:23:21.870Z,99715.31
2023-03-29T08:25:48.411Z,99714.34
2023-03-29T08:28:15.004Z,99715.66
2023-03-29T08:30:44.562Z,99713.13
2023-03-29T08:33:12.496Z,99723.81
2023-03-29T08:35:39.111Z,99713.13
2023-03-29T08:38:05.656Z,99711.00
2023-03-29T08:40:32.564Z,99702.44
2023-03-29T08:43:11.946Z,99698.50
2023-03-29T08:45:49.039Z,99700.63
2023-03-29T08:48:26.606Z,99707.50
2023-03-29T08:50:57.603Z,99691.56
2023-03-29T08:53:29.090Z,99695.84
2023-03-29T08:55:59.659Z,99693.88
2023-03-29T08:58:30.828Z,99685.09
2023-03-29T09:00:59.135Z,99680.22
2023-03-29T09:03:34.305Z,99682.22
2023-03-29T09:06:05.225Z,99686.59
2023-03-29T09:08:32.461Z,99682.69
2023-03-29T09:11:17.377Z,99688.13
2023-03-29T09:13:53.037Z,99689.47
2023-03-29T09:16:26.013Z,99683.66
2023-03-29T09:19:02.406Z,99697.09
2023-03-29T09:21:41.033Z,99696.16
2023-03-29T09:24:18.467Z,99687.38
2023-03-29T09:26:48.806Z,99698.72
2023-03-29T09:29:37.312Z,99692.16
2023-03-29T09:32:12.772Z,99693.28
2023-03-29T09:34:44.238Z,99685.94
2023-03-29T09:37:16.903Z,99680.72
2023-03-29T09:39:43.869Z,99680.31
2023-03-29T09:42:13.740Z,99689.81
2023-03-29T09:44:45.394Z,99676.63
2023-03-29T09:47:19.957Z,99679.38
2023-03-29T09:49:50.678Z,99678.75
2023-03-29T09:52:18.472Z,99678.72
2023-03-29T09:54:45.088Z,99673.13
2023-03-29T09:57:12.283Z,99664.19
2023-03-29T09:59:39.795Z,99667.28
2023-03-29T10:02:08.240Z,99673.88
2023-03-29T10:04:34.922Z,99667.66
2023-03-29T10:07:04.105Z,99671.53
2023-03-29T10:09:31.959Z,99667.88
2023-03-29T10:12:00.383Z,99668.06
2023-03-29T10:14:33.507Z,99663.13
2023-03-29T10:17:00.206Z,99664.59
2023-03-29T10:19:29.611Z,99642.06
2023-03-29T10:21:59.335Z,99646.97
2023-03-29T10:24:28.288Z,99648.28
2023-03-29T10:26:58.031Z,99654.88
2023-03-29T10:29:25.957Z,99655.66
2023-03-29T10:31:53.018Z,99635.41
2023-03-29T10:34:22.461Z,99636.56
2023-03-29T10:36:55.971Z,99633.09
2023-03-29T10:39:25.943Z,99632.81
2023-03-29T10:41:54.299Z,99629.16
2023-03-29T10:44:26.863Z,99622.13
2023-03-29T10:46:53.430Z,99620.69
2023-03-29T10:49:22.399Z,99608.84
2023-03-29T10:51:50.248Z,99625.88
2023-03-29T10:54:19.668Z,99625.69
2023-03-29T10:56:52.530Z,99628.31
2023-03-29T10:59:32.571Z,99629.50
2023-03-29T11:02:29.307Z,99626.03
2023-03-29T11:05:16.163Z,99625.47
2023-03-29T11:07:56.241Z,99628.16
2023-03-29T11:10:32.764Z,99622.69
2023-03-29T11:13:06.683Z,99617.25
2023-03-29T11:15:46.491Z,99613.03
2023-03-29T11:18:41.006Z,99617.91
2023-03-29T11:21:21.562Z,99613.56
2023-03-29T11:23:59.087Z,99621.38
2023-03-29T11:26:32.994Z,99615.47
2023-03-29T11:29:06.877Z,99625.34
2023-03-29T11:31:41.406Z,99619.03
2023-03-29T11:34:22.654Z,99614.06
2023-03-29T11:36:55.354Z,99613.28
2023-03-29T11:39:30.343Z,99609.88
2023-03-29T11:42:05.145Z,99609.38
2023-03-29T11:44:32.726Z,99605.66
2023-03-29T11:47:07.104Z,99601.47
2023-03-29T11:52:14.792Z,99592.19
2023-03-29T11:54:45.994Z,99601.22
2023-03-29T11:57:18.833Z,99588.31
2023-03-29T11:59:54.324Z,99575.19
2023-03-29T12:02:28.695Z,99588.28
2023-03-29T12:04:59.665Z,99584.31
2023-03-29T12:07:32.050Z,99586.75
2023-03-29T12:10:02.683Z,99589.16
2023-03-29T12:12:37.627Z,99577.41
2023-03-29T12:15:07.040Z,99573.81
2023-03-29T12:17:41.995Z,99576.91
2023-03-29T12:20:15.168Z,99582.88
2023-03-29T12:22:42.333Z,99570.03
2023-03-29T12:25:17.813Z,99571.16
2023-03-29T12:27:55.238Z,99560.97
2023-03-29T12:30:33.134Z,99557.09
2023-03-29T12:33:37.457Z,99548.66
2023-03-29T12:36:16.587Z,99540.97
2023-03-29T12:38:43.992Z,99543.25
2023-03-29T12:41:16.689Z,99547.75
2023-03-29T12:43:43.539Z,99547.38
2023-03-29T12:46:14.829Z,99545.47
2023-03-29T12:48:45.538Z,99534.09
2023-03-29T12:51:15.062Z,99544.88
2023-03-29T12:53:44.355Z,99553.97
2023-03-29T12:56:14.953Z,99548.09
2023-03-29T12:58:51.315Z,99545.81
2023-03-29T13:01:28.762Z,99536.47
2023-03-29T13:04:14.665Z,99541.16
2023-03-29T13:06:59.115Z,99533.38
2023-03-29T13:09:28.624Z,99543.59
2023-03-29T13:11:57.517Z,99534.13
2023-03-29T13:14:31.816Z,99531.72
2023-03-29T13:17:15.571Z,99536.72
2023-03-29T13:19:51.628Z,99536.91
2023-03-29T13:22:29.491Z,99523.09
2023-03-29T13:25:20.165Z,99518.56
2023-03-29T13:28:00.794Z,99518.22
2023-03-29T13:30:40.575Z,99529.19
2023-03-29T13:33:31.026Z,99521.59
2023-03-29T13:36:05.450Z,99524.44
2023-03-29T13:38:33.044Z,99525.31
2023-03-29T13:41:02.361Z,99519.97
2023-03-29T13:43:34.895Z,99527.66
2023-03-29T13:46:27.546Z,99521.31
2023-03-29T13:49:03.969Z,99514.59
2023-03-29T13:51:42.496Z,99516.31
2023-03-29T13:54:25.035Z,99514.94
2023-03-29T13:57:03.716Z,99504.56
2023-03-29T13:59:36.712Z,99498.34
2023-03-29T14:02:05.174Z,99477.78
2023-03-29T14:04:37.604Z,99467.91
2023-03-29T14:07:48.834Z,99470.53
2023-03-29T14:10:19.300Z,99466.00
2023-03-29T14:12:46.538Z,99454.44
2023-03-29T14:15:23.281Z,99452.34
2023-03-29T14:17:53.861Z,99459.81
2023-03-29T14:20:20.678Z,99446.31
2023-03-29T14:22:49.682Z,99444.06
2023-03-29T14:25:17.644Z,99450.97
2023-03-29T14:27:44.994Z,99435.25
2023-03-29T14:30:25.590Z,99448.38
2023-03-29T14:32:52.439Z,99449.06
2023-03-29T14:35:20.278Z,99435.78
2023-03-29T14:37:48.535Z,99425.41
2023-03-29T14:40:18.344Z,99432.47
2023-03-29T14:42:45.914Z,99428.88
2023-03-29T14:45:15.553Z,99437.47
2023-03-29T14:47:43.837Z,99439.06
2023-03-29T14:50:18.018Z,99439.06
2023-03-29T14:52:47.575Z,99439.44
2023-03-29T14:55:16.828Z,99433.88
2023-03-29T14:57:43.748Z,99436.13
2023-03-29T15:00:22.235Z,99421.78
2023-03-29T15:02:53.127Z,99415.06
2023-03-29T15:05:28.574Z,99418.84
2023-03-29T15:07:55.350Z,99418.50
2023-03-29T15:10:24.204Z,99413.66
2023-03-29T15:12:51.154Z,99407.63
2023-03-29T15:15:18.544Z,99415.41
2023-03-29T15:17:51.938Z,99403.66
2023-03-29T15:20:24.139Z,99401.34
2023-03-29T15:22:54.602Z,99405.38
2023-03-29T15:25:23.009Z,99397.09
2023-03-29T15:27:55.536Z,99393.13
2023-03-29T15:30:33.782Z,99387.06
2023-03-29T15:33:15.258Z,99381.38
2023-03-29T15:35:44.147Z,99378.25
2023-03-29T15:38:11.137Z,99381.97
2023-03-29T15:40:39.177Z,99376.28
2023-03-29T15:43:05.849Z,99360.75
2023-03-29T15:45:32.430Z,99363.69
2023-03-29T15:47:59.126Z,99346.16
2023-03-29T15:50:25.693Z,99352.75
2023-03-29T15:52:52.915Z,99344.88
2023-03-29T15:55:19.542Z,99342.91
2023-03-29T15:57:48.680Z,99343.28
2023-03-29T16:00:18.427Z,99333.69
2023-03-29T16:02:45.065Z,99314.66
2023-03-29T16:05:11.963Z,99319.50
2023-03-29T16:07:38.754Z,99319.59
2023-03-29T16:10:06.320Z,99316.34
2023-03-29T16:12:33.092Z,99315.59
2023-03-29T16:15:01.253Z,99317.38
2023-03-29T16:17:27.842Z,99313.47
2023-03-29T16:19:54.559Z,99314.38
2023-03-29T16:22:21.114Z,99305.38
2023-03-29T16:24:48.352Z,99297.91
2023-03-29T16:27:14.938Z,99300.84
2023-03-29T16:29:41.584Z,99286.31
2023-03-29T16:32:10.482Z,99282.84
2023-03-29T16:34:37.119Z,99285.28
2023-03-29T16:37:03.724Z,99287.13
2023-03-29T16:39:30.529Z,99282.22
2023-03-29T16:41:57.091Z,99271.59
2023-03-29T16:44:24.104Z,99270.50
2023-03-29T16:46:52.331Z,99272.50
2023-03-29T16:49:20.349Z,99271.03
2023-03-29T16:51:47.953Z,99268.13
2023-03-29T16:54:15.141Z,99267.53
2023-03-29T16:56:42.014Z,99269.84
2023-03-29T16:59:08.818Z,99256.06
2023-03-29T17:01:35.919Z,99260.47
2023-03-29T17:04:02.721Z,99258.22
2023-03-29T17:06:30.697Z,99263.00
2023-03-29T17:08:57.821Z,99268.16
2023-03-29T17:11:24.985Z,99272.22
2023-03-29T17:13:51.850Z,99272.00
2023-03-29T17:16:18.473Z,99263.66
2023-03-29T17:18:45.086Z,99255.00
2023-03-29T17:21:11.670Z,99243.81
2023-03-29T17:23:39.671Z,99257.22
2023-03-29T17:26:06.625Z,99255.41
2023-03-29T17:28:33.721Z,99256.09
2023-03-29T17:31:03.821Z,99263.38
2023-03-29T17:33:30.432Z,99258.22
2023-03-29T17:35:57.047Z,99257.81
2023-03-29T17:38:23.631Z,99266.72
2023-03-29T17:40:55.404Z,99253.91
2023-03-29T17:43:22.830Z,99251.78
2023-03-29T17:45:51.047Z,99249.56
2023-03-29T17:48:17.624Z,99248.72
2023-03-29T17:50:44.259Z,99244.78
2023-03-29T17:53:11.060Z,99244.81
2023-03-29T17:55:39.089Z,99236.19
2023-03-29T17:58:08.035Z,99247.47
2023-03-29T18:00:34.678Z,99240.25
2023-03-29T18:03:01.354Z,99229.97
2023-03-29T18:05:28.004Z,99228.09
2023-03-29T18:07:55.039Z,99225.19
2023-03-29T18:10:21.641Z,99220.53
2023-03-29T18:12:48.259Z,99221.06
2023-03-29T18:15:16.271Z,99221.38
2023-03-29T18:17:42.853Z,99218.28
2023-03-29T18:20:10.077Z,99213.75
2023-03-29T18:22:36.720Z,99226.78
2023-03-29T18:25:03.808Z,99217.22
2023-03-29T18:27:30.424Z,99218.09
2023-03-29T18:29:57.071Z,99221.88
2023-03-29T18:32:25.076Z,99226.56
2023-03-29T18:34:51.767Z,99217.72
2023-03-29T18:37:18.472Z,99219.75
2023-03-29T18:39:45.076Z,99215.19
2023-03-29T18:42:12.242Z,99209.22
2023-03-29T18:44:39.437Z,99218.16
2023-03-29T18:47:06.109Z,99215.22
2023-03-29T18:49:34.120Z,99218.81
2023-03-29T18:52:00.967Z,99213.00
2023-03-29T18:54:27.795Z,99211.97
2023-03-29T18:56:55.554Z,99203.75
2023-03-29T18:59:23.443Z,99209.41
2023-03-29T19:01:50.090Z,99216.84
2023-03-29T19:04:16.707Z,99212.72
2023-03-29T19:06:46.965Z,99204.22
2023-03-29T19:09:13.588Z,99207.09
2023-03-29T19:11:41.406Z,99203.50
2023-03-29T19:14:08.004Z,99200.50
2023-03-29T19:16:35.173Z,99201.53
2023-03-29T19:19:01.764Z,99194.59
2023-03-29T19:21:28.316Z,99192.88
2023-03-29T19:23:56.220Z,99193.25
2023-03-29T19:26:22.834Z,99191.34
2023-03-29T19:28:49.409Z,99183.69
2023-03-29T19:31:16.071Z,99181.50
2023-03-29T19:33:42.658Z,99179.63
2023-03-29T19:36:09.336Z,99179.66
2023-03-29T19:38:35.760Z,99181.06
2023-03-29T19:41:06.307Z,99176.06
2023-03-29T19:43:34.128Z,99179.81
2023-03-29T19:46:06.132Z,99177.47
2023-03-29T19:48:32.743Z,99160.44
2023-03-29T19:51:01.841Z,99166.06
2023-03-29T19:53:28.430Z,99157.72
2023-03-29T19:55:55.149Z,99160.59
2023-03-29T19:58:23.121Z,99151.63
2023-03-29T20:00:49.789Z,99159.66
2023-03-29T20:03:16.504Z,99156.16
2023-03-29T20:05:46.190Z,99147.34
2023-03-29T20:08:12.919Z,99145.88
2023-03-29T20:10:39.514Z,99145.59
2023-03-29T20:13:06.140Z,99143.31
2023-03-29T20:15:34.232Z,99136.69
2023-03-29T20:18:00.882Z,99136.28
2023-03-29T20:20:30.596Z,99125.59
2023-03-29T20:22:57.205Z,99127.47
2023-03-29T20:25:23.996Z,99127.78
2023-03-29T20:27:50.559Z,99125.47
2023-03-29T20:30:20.746Z,99112.94
2023-03-29T20:32:53.218Z,99121.00
2023-03-29T20:35:26.550Z,99129.66
2023-03-29T20:40:40.365Z,99107.88
2023-03-29T20:43:11.975Z,99110.44
2023-03-29T20:46:08.324Z,99083.59
2023-03-29T20:51:51.110Z,99105.88
2023-03-29T20:54:17.663Z,99106.72
2023-03-29T20:56:44.413Z,99099.63
2023-03-29T20:59:11.154Z,99098.50
2023-03-29T21:01:37.840Z,99087.97
2023-03-29T21:04:06.023Z,99084.94
2023-03-29T21:06:32.634Z,99088.09
2023-03-29T21:08:59.221Z,99075.28
2023-03-29T21:11:25.914Z,99076.03
2023-03-29T21:13:52.566Z,99074.41
2023-03-29T21:16:19.387Z,99068.66
2023-03-29T21:18:46.234Z,99063.59
2023-03-29T21:21:14.188Z,99066.19
2023-03-29T21:23:40.764Z,99066.34
2023-03-29T21:26:07.367Z,99065.78
2023-03-29T21:28:34.067Z,99044.56
2023-03-29T21:31:04.270Z,99038.53
2023-03-29T21:33:31.137Z,99027.56
2023-03-29T21:35:57.785Z,99028.16
2023-03-29T21:38:25.842Z,99037.50
2023-03-29T21:40:52.465Z,99038.53
2023-03-29T21:43:19.136Z,99019.91
2023-03-29T21:45:48.276Z,99024.84
2023-03-29T21:48:14.908Z,99025.81
2023-03-29T21:50:41.501Z,99023.22
2023-03-29T21:53:08.190Z,99017.63
2023-03-29T21:55:36.232Z,99006.81
2023-03-29T21:58:02.836Z,99007.25
2023-03-29T22:00:30.956Z,99002.78
2023-03-29T22:02:57.684Z,99017.19
2023-03-29T22:05:24.326Z,99019.63
2023-03-29T22:07:50.873Z,99017.47
2023-03-29T22:10:17.819Z,99023.53
2023-03-29T22:12:45.815Z,99024.69
2023-03-29T22:15:12.948Z,99031.16
2023-03-29T22:17:39.756Z,99026.50
2023-03-29T22:20:07.257Z,99020.47
2023-03-29T22:22:34.050Z,99021.22
2023-03-29T22:25:00.641Z,99016.34
2023-03-29T22:27:27.202Z,99018.94
2023-03-29T22:29:55.221Z,99009.72
2023-03-29T22:32:21.788Z,99015.59
2023-03-29T22:34:48.336Z,99015.88
2023-03-29T22:37:15.171Z,99008.81
2023-03-29T22:39:41.706Z,99003.94
2023-03-29T22:42:08.422Z,98994.84
2023-03-29T22:44:35.066Z,98993.69
2023-03-29T22:47:03.107Z,98996.72
2023-03-29T22:49:29.645Z,99001.50
2023-03-29T22:51:56.193Z,98994.56
2023-03-29T22:54:22.831Z,98990.69
2023-03-29T22:56:49.622Z,98986.66
2023-03-29T22:59:16.210Z,98981.91
2023-03-29T23:01:42.815Z,98985.06
2023-03-29T23:04:10.928Z,98988.81
2023-03-29T23:06:37.492Z,98980.59
2023-03-29T23:09:04.351Z,98988.41
2023-03-29T23:11:31.068Z,98981.59
2023-03-29T23:13:57.655Z,98984.19
2023-03-29T23:16:24.305Z,98985.56
2023-03-29T23:18:50.910Z,98974.13
2023-03-29T23:21:18.845Z,98991.41
2023-03-29T23:23:45.429Z,98983.47
2023-03-29T23:26:12.091Z,98969.44
2023-03-29T23:28:38.938Z,98978.09
2023-03-29T23:31:08.135Z,98975.41
2023-03-29T23:33:36.342Z,98966.34
2023-03-29T23:36:05.326Z,98967.78
2023-03-29T23:38:35.908Z,98965.19
2023-03-29T23:41:05.018Z,98969.22
2023-03-29T23:43:33.734Z,98964.91
2023-03-29T23:46:02.391Z,98964.00
2023-03-29T23:48:29.092Z,98964.47
2023-03-29T23:50:56.095Z,98966.63
2023-03-29T23:53:23.205Z,98966.63
2023-03-29T23:55:51.111Z,98968.34
2023-03-29T23:58:17.663Z,98939.22
